Time;durP1;ratioP1;P1;durP2;ratioP2;P2;SDS_P1;SDS_P2;PMS_P1;PMS_P2;Temp;Humidity;BMP_temperature;BMP_pressure;BME280_temperature;BME280_humidity;BME280_pressure;Samples;Min_cycle;Max_cycle;Signal;HPM_P1;HPM_P2
2020/12/24 07:54:50;;;;;;;;;;;15.40;72.30;;;;;;2542533;22;1581260;-79
2020/12/24 07:55:51;;;;;;;;;;;16.80;71.80;;;;;;2582557;23;19975;-79
2020/12/24 07:56:53;;;;;;;;;;;15.40;70.90;;;;;;2571383;23;20152;-79
2020/12/24 07:58:04;;;;;;;;;;;15.40;71.80;;;;;;2582653;23;19919;-79
2020/12/24 07:59:07;;;;;;;;;;;15.40;72.70;;;;;;2574220;23;19966;-79
2020/12/24 08:00:09;;;;;;;;;;;15.50;72.30;;;;;;2572877;23;19919;-79
2020/12/24 08:01:10;;;;;;;;;;;15.50;73.00;;;;;;2585136;23;20309;-78
2020/12/24 08:02:12;;;;;;;;;;;15.50;71.30;;;;;;2572659;23;19927;-78
2020/12/24 08:03:14;;;;;;;;;;;15.50;71.70;;;;;;2585293;23;19931;-78
2020/12/24 08:04:16;;;;;;;;;;;15.40;72.60;;;;;;2573673;23;19986;-79
2020/12/24 08:05:17;;;;;;;;;;;15.40;72.00;;;;;;2577601;23;19920;-80
2020/12/24 08:06:19;;;;;;;;;;;15.40;71.10;;;;;;2591226;23;19946;-80
2020/12/24 08:07:21;;;;;;;;;;;15.40;73.00;;;;;;2578996;23;19920;-79
2020/12/24 08:08:22;;;;;;;;;;;15.40;72.50;;;;;;2590899;23;19923;-79
2020/12/24 08:09:24;;;;;;;;;;;15.40;73.00;;;;;;2578245;23;20361;-79
2020/12/24 08:10:27;;;;;;;;;;;15.40;73.70;;;;;;2579175;23;19920;-79
2020/12/24 08:11:29;;;;;;;;;;;15.40;73.00;;;;;;2591729;23;19934;-80
2020/12/24 08:12:32;;;;;;;;;;;15.50;72.10;;;;;;2579062;23;19947;-80
2020/12/24 08:13:36;;;;;;;;;;;15.40;71.80;;;;;;2590433;23;19920;-79
2020/12/24 08:14:39;;;;;;;;;;;15.50;72.10;;;;;;2578008;23;19920;-80
2020/12/24 08:15:41;;;;;;;;;;;15.50;72.60;;;;;;2576383;23;19927;-79
2020/12/24 08:16:43;;;;;;;;;;;15.50;72.80;;;;;;2587218;23;19926;-80
2020/12/24 08:17:48;;;;;;;;;;;15.60;73.10;;;;;;2574879;23;19927;-79
2020/12/24 08:18:56;;;;;;;;;;;15.50;72.10;;;;;;2586858;23;19920;-79
2020/12/24 08:20:01;;;;;;;;;;;15.60;72.20;;;;;;2576678;23;19927;-79
2020/12/24 08:21:06;;;;;;;;;;;15.60;73.20;;;;;;2575607;23;19924;-79
2020/12/24 08:22:14;;;;;;;;;;;15.60;73.10;;;;;;2586609;23;19946;-79
2020/12/24 08:23:19;;;;;;;;;;;15.60;72.50;;;;;;2576880;23;19951;-80
2020/12/24 08:24:23;;;;;;;;;;;15.60;73.00;;;;;;2587556;23;19942;-79
2020/12/24 08:25:25;;;;;;;;;;;15.70;72.00;;;;;;2576062;23;19931;-80
2020/12/24 08:26:28;;;;;;;;;;;15.70;72.00;;;;;;2587510;22;19927;-79
2020/12/24 08:27:31;;;;;;;;;;;15.80;72.60;;;;;;2586974;23;19923;-79
2020/12/24 08:28:33;;;;;;;;;;;15.70;72.50;;;;;;2575431;23;19924;-80
2020/12/24 08:29:39;;;;;;;;;;;15.80;72.40;;;;;;2591244;22;19971;-80
2020/12/24 08:30:43;;;;;;;;;;;15.80;73.20;;;;;;2588737;23;19970;-80
2020/12/24 08:31:46;;;;;;;;;;;15.90;71.90;;;;;;2576890;23;19940;-80
2020/12/24 08:32:50;;;;;;;;;;;15.90;72.30;;;;;;2588438;23;19950;-79
2020/12/24 08:33:52;;;;;;;;;;;15.90;72.50;;;;;;2575439;23;19927;-80
2020/12/24 08:34:54;;;;;;;;;;;16.00;70.00;;;;;;2574635;23;19935;-80
2020/12/24 08:36:10;;;;;;;;;;;15.60;70.00;;;;;;2587298;23;19924;-80
2020/12/24 08:37:24;;;;;;;;;;;15.00;68.10;;;;;;2579900;23;19920;-79
2020/12/24 08:38:31;;;;;;;;;;;14.30;67.60;;;;;;2579492;23;19920;-78
2020/12/24 08:39:33;;;;;;;;;;;13.50;71.30;;;;;;2588856;23;19920;-80
2020/12/24 08:40:36;;;;;;;;;;;13.50;74.60;;;;;;2574986;23;19950;-79
2020/12/24 08:41:40;;;;;;;;;;;13.40;72.60;;;;;;2588875;23;20389;-79
2020/12/24 08:42:42;;;;;;;;;;;13.10;73.00;;;;;;2577078;23;20429;-78
2020/12/24 08:43:45;;;;;;;;;;;12.80;77.00;;;;;;2587946;23;19924;-79
2020/12/24 08:44:53;;;;;;;;;;;12.80;75.80;;;;;;2576664;23;19920;-79
2020/12/24 08:45:55;;;;;;;;;;;12.50;76.90;;;;;;2588445;23;19955;-79
2020/12/24 08:47:01;;;;;;;;;;;12.40;76.10;;;;;;2576691;23;19920;-79
2020/12/24 08:48:03;;;;;;;;;;;12.60;76.80;;;;;;2591073;22;19924;-79
2020/12/24 08:49:21;;;;;;;;;;;12.50;74.50;;;;;;2589164;23;19920;-80
2020/12/24 08:50:29;;;;;;;;;;;12.30;74.40;;;;;;2579453;23;19924;-79
2020/12/24 08:51:33;;;;;;;;;;;12.30;76.70;;;;;;2576818;23;19951;-79
2020/12/24 08:52:37;;;;;;;;;;;12.40;79.20;;;;;;2575612;23;19920;-77
2020/12/24 08:53:39;;;;;;;;;;;12.40;76.40;;;;;;2586936;23;19919;-78
2020/12/24 08:54:56;;;;;;;;;;;12.30;77.80;;;;;;2588587;22;19931;-78
2020/12/24 08:56:01;;;;;;;;;;;11.50;77.30;;;;;;2590447;23;20008;-78
2020/12/24 08:57:10;;;;;;;;;;;12.40;76.50;;;;;;2567205;23;19940;-78
2020/12/24 08:58:17;;;;;;;;;;;11.40;74.20;;;;;;2581720;22;19919;-80
2020/12/24 08:59:23;;;;;;;;;;;11.90;75.20;;;;;;2589044;23;19927;-79
2020/12/24 09:00:28;;;;;;;;;;;11.80;76.00;;;;;;2578476;23;19920;-80
2020/12/24 09:01:37;;;;;;;;;;;10.50;75.70;;;;;;2588218;23;19919;-80
2020/12/24 09:02:52;;;;;;;;;;;11.80;75.80;;;;;;2579167;23;19927;-80
2020/12/24 09:04:10;;;;;;;;;;;11.50;79.90;;;;;;2581189;23;20246;-80
2020/12/24 09:05:20;;;;;;;;;;;11.60;77.20;;;;;;2593793;22;19931;-80
2020/12/24 09:06:23;;;;;;;;;;;11.60;79.70;;;;;;2591359;23;19920;-80
2020/12/24 09:07:29;;;;;;;;;;;11.90;77.10;;;;;;2578601;23;19920;-80
2020/12/24 09:08:39;;;;;;;;;;;11.90;76.00;;;;;;2589029;23;19920;-80
2020/12/24 09:09:43;;;;;;;;;;;11.90;81.70;;;;;;2555723;23;19954;-79
2020/12/24 09:11:01;;;;;;;;;;;12.10;79.40;;;;;;2581359;23;19927;-80
2020/12/24 09:12:10;;;;;;;;;;;12.00;77.10;;;;;;2595425;22;19923;-79
2020/12/24 09:13:14;;;;;;;;;;;12.10;78.70;;;;;;2588319;23;19919;-78
2020/12/24 09:14:17;;;;;;;;;;;12.40;79.80;;;;;;2578098;23;19920;-78
2020/12/24 09:15:23;;;;;;;;;;;12.50;78.30;;;;;;2588925;23;19919;-79
2020/12/24 09:16:25;;;;;;;;;;;12.40;75.30;;;;;;2590938;22;19920;-79
2020/12/24 09:17:27;;;;;;;;;;;12.50;76.40;;;;;;2587481;23;19919;-78
2020/12/24 09:18:28;;;;;;;;;;;12.40;76.60;;;;;;2576479;23;19935;-78
2020/12/24 09:19:30;;;;;;;;;;;12.00;72.70;;;;;;2588332;23;20376;-78
2020/12/24 09:20:35;;;;;;;;;;;12.00;77.80;;;;;;2575999;23;19920;-79
2020/12/24 09:21:50;;;;;;;;;;;12.30;80.20;;;;;;2576810;23;19920;-81
2020/12/24 09:23:07;;;;;;;;;;;12.10;79.10;;;;;;2587320;23;20229;-80
2020/12/24 09:24:23;;;;;;;;;;;12.20;74.20;;;;;;2578889;23;19931;-80
2020/12/24 09:25:45;;;;;;;;;;;12.00;73.60;;;;;;2581033;23;19983;-80
2020/12/24 09:26:59;;;;;;;;;;;12.10;76.40;;;;;;2586724;23;19919;-78
2020/12/24 09:28:03;;;;;;;;;;;11.90;78.00;;;;;;2577125;23;19927;-79
2020/12/24 09:29:05;;;;;;;;;;;11.30;78.40;;;;;;2574706;23;19920;-78
2020/12/24 09:30:07;;;;;;;;;;;12.10;74.70;;;;;;2586325;23;19919;-79
2020/12/24 09:31:14;;;;;;;;;;;12.00;74.60;;;;;;2587435;22;19919;-78
2020/12/24 09:32:16;;;;;;;;;;;11.90;75.20;;;;;;2586235;23;20087;-78
2020/12/24 09:33:18;;;;;;;;;;;11.80;75.40;;;;;;2573352;23;19966;-78
2020/12/24 09:34:20;;;;;;;;;;;12.00;80.50;;;;;;2584900;23;20325;-78
2020/12/24 09:35:22;;;;;;;;;;;12.10;76.60;;;;;;2573023;23;19942;-78
2020/12/24 09:36:26;;;;;;;;;;;12.00;76.80;;;;;;2573406;23;19972;-78
2020/12/24 09:37:30;;;;;;;;;;;12.10;77.00;;;;;;2585728;22;20382;-76
2020/12/24 09:38:31;;;;;;;;;;;12.30;81.10;;;;;;2584169;23;19927;-76
2020/12/24 09:39:33;;;;;;;;;;;12.50;75.10;;;;;;2571618;23;20364;-77
2020/12/24 09:40:35;;;;;;;;;;;12.70;78.30;;;;;;2582759;23;19920;-77
2020/12/24 09:41:39;;;;;;;;;;;12.80;79.60;;;;;;2571315;23;19920;-76
2020/12/24 09:42:41;;;;;;;;;;;13.10;75.30;;;;;;2583808;22;19919;-76
2020/12/24 09:43:43;;;;;;;;;;;13.20;76.90;;;;;;2596562;22;19927;-78
2020/12/24 09:44:47;;;;;;;;;;;13.10;73.50;;;;;;2583366;23;19919;-78
2020/12/24 09:45:48;;;;;;;;;;;13.20;72.20;;;;;;2571239;23;19927;-78
2020/12/24 09:46:52;;;;;;;;;;;13.20;73.60;;;;;;2583672;23;19920;-79
2020/12/24 09:47:57;;;;;;;;;;;13.30;74.90;;;;;;2571365;23;19920;-78
2020/12/24 09:48:59;;;;;;;;;;;13.10;71.50;;;;;;2571465;23;19920;-79
2020/12/24 09:50:01;;;;;;;;;;;12.90;70.80;;;;;;2582056;23;20314;-77
2020/12/24 09:51:05;;;;;;;;;;;13.10;75.80;;;;;;2570071;23;19955;-75
2020/12/24 09:52:06;;;;;;;;;;;12.90;73.40;;;;;;2583799;22;20341;-75
2020/12/24 09:53:08;;;;;;;;;;;13.10;76.70;;;;;;2595735;22;19919;-77
2020/12/24 09:54:11;;;;;;;;;;;13.40;78.10;;;;;;2582723;23;19982;-75
2020/12/24 09:55:12;;;;;;;;;;;13.60;76.20;;;;;;2583658;22;19931;-79
2020/12/24 09:56:16;;;;;;;;;;;13.60;71.80;;;;;;2583944;23;19930;-80
2020/12/24 09:57:24;;;;;;;;;;;13.70;71.50;;;;;;2585820;22;19923;-78
2020/12/24 09:58:26;;;;;;;;;;;13.50;71.50;;;;;;2583475;23;20380;-78
2020/12/24 09:59:28;;;;;;;;;;;13.60;70.50;;;;;;2570966;23;19924;-79
2020/12/24 10:00:37;;;;;;;;;;;13.50;71.30;;;;;;2583732;23;19920;-78
2020/12/24 10:01:38;;;;;;;;;;;13.60;71.10;;;;;;2573272;23;19920;-80
2020/12/24 10:02:40;;;;;;;;;;;13.40;69.30;;;;;;2571747;23;19999;-78
2020/12/24 10:03:41;;;;;;;;;;;13.40;72.60;;;;;;2583603;23;19928;-78
2020/12/24 10:04:43;;;;;;;;;;;13.50;74.50;;;;;;2570502;23;19999;-78
2020/12/24 10:05:45;;;;;;;;;;;13.40;71.30;;;;;;2583107;23;19923;-78
2020/12/24 10:06:46;;;;;;;;;;;13.20;71.40;;;;;;2571481;23;19927;-79
2020/12/24 10:07:50;;;;;;;;;;;13.30;76.30;;;;;;2570753;23;20422;-79
2020/12/24 10:08:51;;;;;;;;;;;13.50;73.50;;;;;;2583170;23;19926;-78
2020/12/24 10:09:53;;;;;;;;;;;13.40;72.10;;;;;;2569676;23;19927;-78
2020/12/24 10:10:55;;;;;;;;;;;13.40;70.50;;;;;;2582368;23;20033;-78
2020/12/24 10:11:56;;;;;;;;;;;13.30;72.00;;;;;;2570631;23;19920;-78
2020/12/24 10:12:59;;;;;;;;;;;13.10;75.30;;;;;;2570640;23;19923;-79
2020/12/24 10:14:01;;;;;;;;;;;13.30;75.90;;;;;;2570834;23;19920;-78
2020/12/24 10:15:04;;;;;;;;;;;13.20;72.60;;;;;;2582930;23;19919;-78
2020/12/24 10:16:07;;;;;;;;;;;13.10;71.10;;;;;;2570841;23;19920;-78
2020/12/24 10:17:09;;;;;;;;;;;13.00;73.50;;;;;;2582889;23;19920;-79
2020/12/24 10:18:10;;;;;;;;;;;13.10;73.70;;;;;;2570757;23;19954;-79
2020/12/24 10:19:12;;;;;;;;;;;13.20;73.50;;;;;;2571237;23;19927;-79
2020/12/24 10:20:14;;;;;;;;;;;13.30;71.60;;;;;;2582856;23;19951;-78
2020/12/24 10:21:15;;;;;;;;;;;13.00;73.40;;;;;;2571040;23;19927;-79
2020/12/24 10:22:17;;;;;;;;;;;13.20;77.30;;;;;;2571798;23;19919;-78
2020/12/24 10:23:25;;;;;;;;;;;13.40;77.00;;;;;;2583743;23;19938;-78
2020/12/24 10:24:27;;;;;;;;;;;13.20;71.30;;;;;;2573140;23;19927;-78
2020/12/24 10:25:28;;;;;;;;;;;13.10;72.10;;;;;;2572155;23;19920;-79
2020/12/24 10:26:30;;;;;;;;;;;13.00;73.80;;;;;;2583901;23;19947;-79
2020/12/24 10:27:33;;;;;;;;;;;13.20;76.90;;;;;;2572166;23;19920;-78
2020/12/24 10:28:34;;;;;;;;;;;13.40;76.20;;;;;;2571795;23;19931;-78
2020/12/24 10:29:36;;;;;;;;;;;13.40;74.10;;;;;;2584249;23;19919;-79
2020/12/24 10:30:38;;;;;;;;;;;13.70;74.70;;;;;;2583810;23;19927;-79
2020/12/24 10:31:43;;;;;;;;;;;13.90;71.80;;;;;;2571531;23;20084;-78
2020/12/24 10:32:45;;;;;;;;;;;13.80;75.30;;;;;;2572102;23;19920;-79
2020/12/24 10:33:47;;;;;;;;;;;13.90;72.30;;;;;;2583884;23;19920;-80
2020/12/24 10:34:49;;;;;;;;;;;13.90;75.00;;;;;;2572188;23;19920;-79
2020/12/24 10:35:51;;;;;;;;;;;14.00;73.50;;;;;;2584204;23;19931;-78
2020/12/24 10:36:52;;;;;;;;;;;13.90;69.90;;;;;;2572434;23;19920;-79
2020/12/24 10:37:54;;;;;;;;;;;13.60;68.90;;;;;;2571373;23;19920;-79
2020/12/24 10:38:57;;;;;;;;;;;13.60;72.10;;;;;;2584010;23;19920;-79
2020/12/24 10:40:00;;;;;;;;;;;13.60;72.80;;;;;;2571940;23;19924;-79
2020/12/24 10:41:02;;;;;;;;;;;13.70;75.40;;;;;;2584853;23;19919;-79
2020/12/24 10:42:04;;;;;;;;;;;14.00;75.50;;;;;;2572132;23;20395;-79
2020/12/24 10:43:06;;;;;;;;;;;14.10;71.10;;;;;;2573865;23;19920;-79
2020/12/24 10:44:08;;;;;;;;;;;13.90;73.60;;;;;;2575261;23;19935;-79
2020/12/24 10:45:09;;;;;;;;;;;14.00;72.20;;;;;;2587830;23;19919;-78
2020/12/24 10:46:15;;;;;;;;;;;14.10;74.30;;;;;;2574839;23;20072;-79
2020/12/24 10:47:16;;;;;;;;;;;14.00;70.00;;;;;;2575216;23;19920;-79
2020/12/24 10:48:18;;;;;;;;;;;13.00;71.30;;;;;;2587265;23;19920;-80
2020/12/24 10:49:20;;;;;;;;;;;13.80;68.80;;;;;;2574029;23;19919;-79
2020/12/24 10:50:22;;;;;;;;;;;13.80;75.00;;;;;;2586446;23;19941;-78
2020/12/24 10:51:26;;;;;;;;;;;13.80;73.00;;;;;;2573143;23;20022;-79
2020/12/24 10:52:27;;;;;;;;;;;13.70;70.40;;;;;;2571174;23;19920;-78
2020/12/24 10:53:42;;;;;;;;;;;13.60;73.10;;;;;;2573794;23;19928;-78
2020/12/24 10:54:44;;;;;;;;;;;13.50;74.50;;;;;;2586811;22;19923;-78
2020/12/24 10:55:45;;;;;;;;;;;13.30;70.30;;;;;;2583562;23;19920;-78
2020/12/24 10:56:47;;;;;;;;;;;14.10;71.00;;;;;;2571118;23;19927;-78
2020/12/24 10:57:50;;;;;;;;;;;13.40;72.00;;;;;;2584154;23;19924;-78
2020/12/24 10:58:52;;;;;;;;;;;13.30;73.80;;;;;;2572609;23;20107;-79
2020/12/24 10:59:53;;;;;;;;;;;13.20;72.30;;;;;;2572406;23;19943;-78
2020/12/24 11:00:54;;;;;;;;;;;13.10;70.20;;;;;;2584579;23;19935;-78
2020/12/24 11:01:57;;;;;;;;;;;13.00;71.50;;;;;;2572318;23;20353;-78
2020/12/24 11:03:03;;;;;;;;;;;13.10;74.10;;;;;;2584636;23;19969;-79
2020/12/24 11:04:05;;;;;;;;;;;13.00;71.70;;;;;;2572843;23;19920;-77
2020/12/24 11:05:06;;;;;;;;;;;13.00;73.50;;;;;;2571485;23;20337;-76
2020/12/24 11:06:14;;;;;;;;;;;13.10;76.50;;;;;;2584443;23;19919;-77
2020/12/24 11:07:16;;;;;;;;;;;13.20;77.90;;;;;;2584043;23;19920;-78
2020/12/24 11:08:18;;;;;;;;;;;13.20;79.60;;;;;;2571767;23;19920;-78
2020/12/24 11:09:19;;;;;;;;;;;13.50;76.40;;;;;;2571676;23;19927;-78
2020/12/24 11:10:20;;;;;;;;;;;13.30;72.20;;;;;;2584718;23;19920;-79
2020/12/24 11:11:22;;;;;;;;;;;13.30;72.00;;;;;;2573048;23;20375;-77
2020/12/24 11:12:24;;;;;;;;;;;13.40;73.60;;;;;;2583561;23;19930;-76
2020/12/24 11:13:26;;;;;;;;;;;13.30;71.70;;;;;;2583338;22;19926;-76
2020/12/24 11:14:29;;;;;;;;;;;13.20;73.50;;;;;;2597240;22;19919;-76
2020/12/24 11:15:31;;;;;;;;;;;13.30;75.70;;;;;;2597103;22;19919;-77
2020/12/24 11:16:33;;;;;;;;;;;13.40;72.40;;;;;;2583463;23;19949;-77
2020/12/24 11:17:35;;;;;;;;;;;13.10;69.90;;;;;;2583375;22;19927;-76
2020/12/24 11:18:38;;;;;;;;;;;13.00;73.20;;;;;;2595976;22;20202;-77
2020/12/24 11:19:40;;;;;;;;;;;13.20;75.50;;;;;;2597010;22;19919;-76
2020/12/24 11:20:41;;;;;;;;;;;13.20;72.60;;;;;;2596747;22;19926;-76
2020/12/24 11:21:43;;;;;;;;;;;13.10;73.90;;;;;;2583308;23;20361;-76
2020/12/24 11:22:44;;;;;;;;;;;13.10;74.60;;;;;;2583853;23;20412;-77
2020/12/24 11:24:06;;;;;;;;;;;13.30;74.70;;;;;;2587598;22;19986;-76
2020/12/24 11:25:08;;;;;;;;;;;13.30;74.10;;;;;;2583822;23;19919;-77
2020/12/24 11:26:10;;;;;;;;;;;13.50;75.00;;;;;;2584266;22;19973;-76
2020/12/24 11:27:12;;;;;;;;;;;13.60;72.90;;;;;;2583461;23;19929;-77
2020/12/24 11:28:13;;;;;;;;;;;13.60;74.30;;;;;;2571599;23;19968;-77
2020/12/24 11:29:18;;;;;;;;;;;13.50;75.00;;;;;;2589441;23;19927;-78
2020/12/24 11:30:21;;;;;;;;;;;14.40;75.50;;;;;;2593338;22;19977;-76
2020/12/24 11:31:27;;;;;;;;;;;13.50;72.30;;;;;;2606177;22;19941;-78
2020/12/24 11:33:00;;;;;;;;;;;13.60;75.10;;;;;;2566641;23;19928;-78
2020/12/24 11:34:29;;;;;;;;;;;13.60;73.20;;;;;;2568692;23;19921;-77
2020/12/24 11:35:37;;;;;;;;;;;13.40;69.80;;;;;;2569236;23;19965;-79
2020/12/24 11:36:44;;;;;;;;;;;13.20;71.50;;;;;;2556498;23;19939;-79
2020/12/24 11:37:54;;;;;;;;;;;12.50;71.80;;;;;;2543086;23;19921;-78
2020/12/24 11:38:59;;;;;;;;;;;12.30;77.10;;;;;;2544142;23;19952;-78
2020/12/24 11:40:13;;;;;;;;;;;12.10;79.40;;;;;;2541034;23;19921;-78
2020/12/24 11:41:24;;;;;;;;;;;11.90;77.50;;;;;;2543491;23;19921;-78
2020/12/24 11:42:31;;;;;;;;;;;11.70;80.70;;;;;;2543331;23;19928;-78
2020/12/24 11:43:55;;;;;;;;;;;11.90;82.60;;;;;;2542436;23;19921;-78
2020/12/24 11:45:05;;;;;;;;;;;12.00;78.70;;;;;;2543327;23;19921;-78
2020/12/24 11:46:33;;;;;;;;;;;11.90;78.60;;;;;;2543369;23;19921;-78
2020/12/24 11:47:54;;;;;;;;;;;11.90;76.90;;;;;;2532407;23;19921;-78
2020/12/24 11:49:15;;;;;;;;;;;11.90;80.80;;;;;;2537474;23;19943;-77
2020/12/24 11:50:19;;;;;;;;;;;11.70;79.50;;;;;;2532917;23;19987;-78
2020/12/24 11:51:28;;;;;;;;;;;11.90;83.20;;;;;;2534832;23;19928;-78
2020/12/24 11:52:46;;;;;;;;;;;12.20;80.60;;;;;;2543978;23;19932;-78
2020/12/24 11:54:08;;;;;;;;;;;12.40;83.70;;;;;;2544952;23;19948;-77
2020/12/24 11:55:18;;;;;;;;;;;12.40;78.60;;;;;;2544518;23;19920;-78
2020/12/24 11:56:42;;;;;;;;;;;12.10;75.80;;;;;;2542242;23;19956;-77
2020/12/24 11:58:04;;;;;;;;;;;12.30;82.50;;;;;;2544515;23;19932;-78
2020/12/24 11:59:33;;;;;;;;;;;12.40;82.20;;;;;;2532651;23;19953;-77
2020/12/24 12:00:48;;;;;;;;;;;12.30;78.00;;;;;;2539915;23;19921;-77
2020/12/24 12:01:53;;;;;;;;;;;12.10;81.10;;;;;;2532599;23;19905;-78
2020/12/24 12:02:58;;;;;;;;;;;11.90;81.30;;;;;;2534989;23;19920;-78
2020/12/24 12:04:18;;;;;;;;;;;12.10;83.80;;;;;;2540580;23;19909;-78
2020/12/24 12:05:33;;;;;;;;;;;11.90;78.50;;;;;;2556483;23;19920;-77
2020/12/24 12:06:48;;;;;;;;;;;11.90;85.10;;;;;;2555862;23;19920;-78
2020/12/24 12:07:52;;;;;;;;;;;12.10;83.50;;;;;;2575652;23;19927;-78
2020/12/24 12:09:00;;;;;;;;;;;12.30;82.20;;;;;;2576900;23;19919;-78
2020/12/24 12:10:10;;;;;;;;;;;12.00;76.60;;;;;;2574838;23;19920;-77
2020/12/24 12:11:13;;;;;;;;;;;12.00;81.10;;;;;;2575503;23;19920;-77
2020/12/24 12:12:15;;;;;;;;;;;11.80;76.90;;;;;;2572011;23;19930;-78
2020/12/24 12:13:19;;;;;;;;;;;11.80;78.10;;;;;;2584778;23;19920;-78
2020/12/24 12:14:22;;;;;;;;;;;11.60;77.30;;;;;;2584213;22;20033;-77
2020/12/24 12:15:38;;;;;;;;;;;10.30;80.80;;;;;;2586042;23;20345;-78
2020/12/24 12:16:46;;;;;;;;;;;11.50;80.80;;;;;;2581953;23;19944;-78
2020/12/24 12:17:55;;;;;;;;;;;11.30;79.40;;;;;;2590178;22;19919;-77
2020/12/24 12:19:02;;;;;;;;;;;11.50;84.00;;;;;;2588506;23;19919;-78
2020/12/24 12:20:08;;;;;;;;;;;11.10;80.60;;;;;;2593183;22;19919;-78
2020/12/24 12:21:30;;;;;;;;;;;11.00;85.00;;;;;;2601768;22;20336;-78
2020/12/24 12:22:34;;;;;;;;;;;11.00;83.40;;;;;;2589555;23;19924;-78
2020/12/24 12:23:36;;;;;;;;;;;11.20;88.10;;;;;;2584354;22;19931;-76
2020/12/24 12:24:43;;;;;;;;;;;11.10;81.40;;;;;;2596792;22;19986;-75
2020/12/24 12:25:45;;;;;;;;;;;11.10;81.80;;;;;;2597050;22;19919;-73
2020/12/24 12:26:46;;;;;;;;;;;11.20;86.40;;;;;;2596584;22;19919;-74
2020/12/24 12:27:48;;;;;;;;;;;11.40;85.80;;;;;;2597604;22;19919;-74
2020/12/24 12:28:49;;;;;;;;;;;11.60;85.40;;;;;;2597655;22;20230;-74
2020/12/24 12:29:51;;;;;;;;;;;11.50;81.70;;;;;;2597482;22;19919;-75
2020/12/24 12:30:53;;;;;;;;;;;10.90;80.10;;;;;;2596742;22;20329;-74
2020/12/24 12:31:54;;;;;;;;;;;10.90;84.60;;;;;;2596608;22;20234;-75
2020/12/24 12:32:56;;;;;;;;;;;11.00;83.70;;;;;;2596562;22;19942;-74
2020/12/24 12:33:59;;;;;;;;;;;11.10;84.80;;;;;;2596675;22;19919;-74
2020/12/24 12:35:01;;;;;;;;;;;11.10;82.10;;;;;;2596548;22;20237;-73
2020/12/24 12:36:02;;;;;;;;;;;11.10;82.20;;;;;;2596680;22;20344;-73
2020/12/24 12:37:05;;;;;;;;;;;11.00;81.80;;;;;;2596877;22;20013;-74
2020/12/24 12:38:07;;;;;;;;;;;11.00;83.10;;;;;;2597381;22;19920;-74
2020/12/24 12:39:08;;;;;;;;;;;10.90;85.20;;;;;;2584414;23;19920;-74
2020/12/24 12:40:09;;;;;;;;;;;11.00;84.90;;;;;;2584911;22;20352;-76
2020/12/24 12:41:11;;;;;;;;;;;11.10;84.30;;;;;;2596220;22;19920;-74
2020/12/24 12:42:12;;;;;;;;;;;11.10;83.00;;;;;;2595858;22;20229;-74
2020/12/24 12:43:13;;;;;;;;;;;11.20;84.50;;;;;;2596081;22;19942;-72
2020/12/24 12:44:15;;;;;;;;;;;11.20;80.70;;;;;;2595997;22;19919;-72
2020/12/24 12:45:16;;;;;;;;;;;11.20;80.70;;;;;;2595725;22;19919;-73
2020/12/24 12:46:19;;;;;;;;;;;11.30;79.80;;;;;;2595981;22;19919;-73
2020/12/24 12:47:20;;;;;;;;;;;10.90;78.10;;;;;;2595871;22;20245;-73
2020/12/24 12:48:22;;;;;;;;;;;11.20;82.20;;;;;;2582852;23;20061;-74
2020/12/24 12:49:23;;;;;;;;;;;11.20;83.10;;;;;;2582782;22;19919;-73
2020/12/24 12:50:24;;;;;;;;;;;11.10;78.80;;;;;;2595996;22;19942;-73
2020/12/24 12:51:26;;;;;;;;;;;10.90;80.70;;;;;;2596146;22;19930;-72
2020/12/24 12:52:30;;;;;;;;;;;10.80;80.00;;;;;;2595842;22;20331;-75
2020/12/24 12:53:31;;;;;;;;;;;10.70;80.60;;;;;;2595896;22;19919;-72
2020/12/24 12:54:32;;;;;;;;;;;10.80;82.20;;;;;;2595977;22;20249;-72
2020/12/24 12:55:34;;;;;;;;;;;10.90;83.10;;;;;;2595558;22;19951;-72
2020/12/24 12:56:36;;;;;;;;;;;10.80;80.90;;;;;;2596102;22;20390;-72
2020/12/24 12:57:37;;;;;;;;;;;10.90;83.40;;;;;;2596042;22;19919;-72
2020/12/24 12:58:40;;;;;;;;;;;11.00;83.50;;;;;;2596433;22;19919;-73
2020/12/24 12:59:42;;;;;;;;;;;11.00;81.00;;;;;;2596542;22;19919;-73
2020/12/24 13:00:43;;;;;;;;;;;11.10;80.90;;;;;;2596667;22;19919;-72
2020/12/24 13:01:45;;;;;;;;;;;11.10;78.60;;;;;;2596305;22;19919;-74
2020/12/24 13:02:46;;;;;;;;;;;11.00;79.50;;;;;;2596570;22;20162;-72
2020/12/24 13:03:47;;;;;;;;;;;11.00;79.50;;;;;;2596636;22;19919;-74
2020/12/24 13:04:49;;;;;;;;;;;11.00;80.60;;;;;;2596467;22;19926;-73
2020/12/24 13:05:50;;;;;;;;;;;10.90;79.90;;;;;;2596412;22;19920;-72
2020/12/24 13:06:51;;;;;;;;;;;10.90;81.70;;;;;;2596388;22;19920;-72
2020/12/24 13:07:54;;;;;;;;;;;10.90;79.70;;;;;;2596204;22;19920;-74
2020/12/24 13:08:55;;;;;;;;;;;10.90;80.00;;;;;;2596412;22;19923;-73
2020/12/24 13:09:57;;;;;;;;;;;10.90;80.80;;;;;;2582888;23;19927;-73
2020/12/24 13:10:58;;;;;;;;;;;11.10;84.60;;;;;;2570915;23;19924;-72
2020/12/24 13:11:59;;;;;;;;;;;11.20;81.70;;;;;;2583052;22;19923;-73
2020/12/24 13:13:01;;;;;;;;;;;11.20;78.10;;;;;;2596193;22;19919;-73
2020/12/24 13:14:03;;;;;;;;;;;11.10;80.10;;;;;;2596219;22;19919;-72
2020/12/24 13:15:04;;;;;;;;;;;11.20;80.80;;;;;;2596182;22;19919;-73
2020/12/24 13:16:06;;;;;;;;;;;11.30;79.10;;;;;;2596216;22;19919;-73
2020/12/24 13:17:07;;;;;;;;;;;11.30;78.90;;;;;;2596167;22;19919;-72
2020/12/24 13:18:08;;;;;;;;;;;11.20;80.40;;;;;;2582336;23;19927;-72
2020/12/24 13:19:10;;;;;;;;;;;11.30;78.90;;;;;;2582619;22;20257;-72
2020/12/24 13:20:11;;;;;;;;;;;11.40;80.10;;;;;;2595499;22;19930;-72
2020/12/24 13:21:13;;;;;;;;;;;11.20;77.10;;;;;;2595669;22;19920;-73
2020/12/24 13:22:14;;;;;;;;;;;11.20;77.20;;;;;;2595567;22;19919;-73
2020/12/24 13:23:17;;;;;;;;;;;11.30;82.90;;;;;;2595972;22;19919;-72
2020/12/24 13:24:18;;;;;;;;;;;11.40;81.90;;;;;;2595670;22;19919;-74
2020/12/24 13:25:23;;;;;;;;;;;11.20;76.60;;;;;;2595729;22;20440;-72
2020/12/24 13:26:29;;;;;;;;;;;11.30;77.60;;;;;;2582397;23;20301;-73
2020/12/24 13:27:31;;;;;;;;;;;11.30;78.50;;;;;;2583831;22;19943;-73
2020/12/24 13:28:32;;;;;;;;;;;11.10;77.10;;;;;;2595670;22;20268;-74
2020/12/24 13:29:33;;;;;;;;;;;11.20;81.00;;;;;;2595635;22;19919;-73
2020/12/24 13:30:35;;;;;;;;;;;11.00;78.20;;;;;;2595716;22;20256;-73
2020/12/24 13:31:36;;;;;;;;;;;11.20;81.80;;;;;;2595694;22;20379;-73
2020/12/24 13:32:38;;;;;;;;;;;11.20;78.80;;;;;;2595644;22;19923;-74
2020/12/24 13:33:39;;;;;;;;;;;11.20;79.20;;;;;;2582107;23;19919;-72
2020/12/24 13:34:43;;;;;;;;;;;11.30;80.90;;;;;;2582422;22;20385;-73
2020/12/24 13:35:44;;;;;;;;;;;11.40;81.50;;;;;;2595804;22;19919;-72
2020/12/24 13:36:46;;;;;;;;;;;11.50;79.90;;;;;;2595488;22;19919;-73
2020/12/24 13:37:47;;;;;;;;;;;11.50;79.70;;;;;;2595680;22;19920;-74
2020/12/24 13:38:50;;;;;;;;;;;11.60;78.70;;;;;;2595782;22;19919;-72
2020/12/24 13:39:51;;;;;;;;;;;11.50;76.90;;;;;;2595908;22;20101;-73
2020/12/24 13:40:52;;;;;;;;;;;11.40;76.70;;;;;;2596118;22;19926;-73
2020/12/24 13:41:54;;;;;;;;;;;11.50;77.70;;;;;;2595797;22;19919;-72
2020/12/24 13:42:55;;;;;;;;;;;11.50;77.00;;;;;;2595895;22;19942;-73
2020/12/24 13:43:57;;;;;;;;;;;11.50;78.50;;;;;;2595974;22;19919;-73
2020/12/24 13:44:58;;;;;;;;;;;11.50;74.80;;;;;;2596010;22;19926;-72
2020/12/24 13:46:00;;;;;;;;;;;11.40;76.30;;;;;;2596223;22;19996;-72
2020/12/24 13:47:01;;;;;;;;;;;11.30;75.30;;;;;;2596460;22;19927;-74
2020/12/24 13:48:03;;;;;;;;;;;11.20;75.40;;;;;;2596690;22;19933;-72
2020/12/24 13:49:05;;;;;;;;;;;11.30;78.70;;;;;;2596403;22;19923;-73
2020/12/24 13:50:06;;;;;;;;;;;11.30;76.70;;;;;;2596143;22;19919;-73
2020/12/24 13:51:07;;;;;;;;;;;11.30;77.10;;;;;;2582379;23;19919;-73
2020/12/24 13:52:09;;;;;;;;;;;11.30;77.10;;;;;;2582714;22;19920;-73
2020/12/24 13:53:10;;;;;;;;;;;11.40;79.70;;;;;;2595617;22;19926;-72
2020/12/24 13:54:12;;;;;;;;;;;11.30;79.70;;;;;;2595810;22;19926;-72
2020/12/24 13:55:14;;;;;;;;;;;11.40;77.10;;;;;;2595825;22;19923;-73
2020/12/24 13:56:15;;;;;;;;;;;11.40;76.80;;;;;;2582424;23;19942;-72
2020/12/24 13:57:17;;;;;;;;;;;11.40;76.00;;;;;;2582695;22;19920;-72
2020/12/24 13:58:19;;;;;;;;;;;11.40;75.60;;;;;;2595782;22;19920;-73
2020/12/24 13:59:21;;;;;;;;;;;11.30;77.10;;;;;;2597262;22;19990;-74
2020/12/24 14:00:23;;;;;;;;;;;11.30;78.90;;;;;;2598895;22;19926;-73
2020/12/24 14:01:24;;;;;;;;;;;11.40;77.20;;;;;;2598172;22;19938;-73
2020/12/24 14:02:29;;;;;;;;;;;11.30;78.60;;;;;;2585112;23;19920;-73
2020/12/24 14:03:31;;;;;;;;;;;11.20;74.90;;;;;;2586054;22;19920;-75
2020/12/24 14:04:32;;;;;;;;;;;11.20;75.00;;;;;;2598595;22;20321;-73
2020/12/24 14:05:34;;;;;;;;;;;11.00;74.80;;;;;;2599207;22;19919;-73
2020/12/24 14:06:35;;;;;;;;;;;10.80;75.70;;;;;;2599205;22;19924;-73
2020/12/24 14:07:36;;;;;;;;;;;11.00;81.00;;;;;;2598698;22;19919;-73
2020/12/24 14:08:38;;;;;;;;;;;10.90;77.10;;;;;;2596843;22;19919;-73